Time,TemperatureF,DewpointF,PressureIn,WindDirection,WindDirectionDegrees,WindSpeedMPH,WindSpeedGustMPH,Humidity,HourlyPrecipIn,Conditions,Clouds,dailyrainin,SoftwareType,DateUTC
2013-09-09 00:00:00,77.4,70.1,29.98,SSE,166,0.0,0.0,78,0.00,,,0.00,WUHU216DAVISVP2,2013-09-09 04:00:00,
2013-09-09 00:01:00,77.4,70.1,29.98,SSE,166,0.0,0.0,78,0.00,,,0.00,WUHU216DAVISVP2,2013-09-09 04:01:00,
2013-09-09 00:02:00,77.4,70.5,29.98,SSE,166,0.0,0.0,79,0.00,,,0.00,WUHU216DAVISVP2,2013-09-09 04:02:00,
2013-09-09 00:07:00,77.3,70.4,29.98,SSE,166,0.0,0.0,79,0.00,,,0.00,WUHU216DAVISVP2,2013-09-09 04:07:00,
2013-09-09 00:12:00,77.1,70.6,29.98,SSE,166,0.0,0.0,80,0.00,,,0.00,WUHU216DAVISVP2,2013-09-09 04:12:00,
2013-09-09 00:17:00,76.9,70.4,29.99,SSE,166,0.0,0.0,80,0.00,,,0.00,WUHU216DAVISVP2,2013-09-09 04:17:00,
2013-09-09 00:22:00,76.8,70.3,29.98,SSE,166,0.0,0.0,80,0.00,,,0.00,WUHU216DAVISVP2,2013-09-09 04:22:00,
2013-09-09 00:27:00,76.6,70.1,29.98,SSE,166,0.0,0.0,80,0.00,,,0.00,WUHU216DAVISVP2,2013-09-09 04:27:00,
2013-09-09 00:32:00,76.5,70.0,29.98,SSE,166,0.0,0.0,80,0.00,,,0.00,WUHU216DAVISVP2,2013-09-09 04:32:00,
2013-09-09 00:37:00,76.4,70.2,29.98,SSE,166,0.0,0.0,81,0.00,,,0.00,WUHU216DAVISVP2,2013-09-09 04:37:00,
2013-09-09 00:42:00,76.3,70.5,29.98,SSE,166,0.0,0.0,82,0.00,,,0.00,WUHU216DAVISVP2,2013-09-09 04:42:00,
2013-09-09 00:47:00,76.1,70.3,29.98,SSE,166,0.0,0.0,82,0.00,,,0.00,WUHU216DAVISVP2,2013-09-09 04:47:00,
2013-09-09 00:52:00,76.0,70.2,29.98,SSE,166,0.0,0.0,82,0.00,,,0.00,WUHU216DAVISVP2,2013-09-09 04:52:00,
2013-09-09 00:57:00,76.0,70.5,29.98,SSE,166,0.0,0.0,83,0.00,,,0.00,WUHU216DAVISVP2,2013-09-09 04:57:00,
2013-09-09 01:02:00,75.9,70.4,29.98,SSE,166,0.0,0.0,83,0.00,,,0.00,WUHU216DAVISVP2,2013-09-09 05:02:00,
2013-09-09 01:07:00,75.8,70.3,29.98,SSE,166,0.0,0.0,83,0.00,,,0.00,WUHU216DAVISVP2,2013-09-09 05:07:00,
2013-09-09 01:12:00,75.6,70.5,29.98,SSE,166,0.0,0.0,84,0.00,,,0.00,WUHU216DAVISVP2,2013-09-09 05:12:00,
2013-09-09 01:17:00,75.5,70.4,29.98,SSE,166,0.0,0.0,84,0.00,,,0.00,WUHU216DAVISVP2,2013-09-09 05:17:00,
2013-09-09 01:22:00,75.4,70.6,29.98,SSE,166,0.0,0.0,85,0.00,,,0.00,WUHU216DAVISVP2,2013-09-09 05:22:00,
2013-09-09 01:27:00,75.3,70.5,29.98,SSE,166,0.0,0.0,85,0.00,,,0.00,WUHU216DAVISVP2,2013-09-09 05:27:00,
2013-09-09 01:32:00,75.2,70.4,29.98,SSE,166,0.0,0.0,85,0.00,,,0.00,WUHU216DAVISVP2,2013-09-09 05:32:00,
2013-09-09 01:37:00,75.0,70.2,29.98,SSE,166,0.0,0.0,85,0.00,,,0.00,WUHU216DAVISVP2,2013-09-09 05:37:00,
2013-09-09 01:42:00,74.9,70.5,29.98,SSE,166,0.0,0.0,86,0.00,,,0.00,WUHU216DAVISVP2,2013-09-09 05:42:00,
2013-09-09 01:47:00,74.8,70.4,29.98,SSE,166,0.0,0.0,86,0.00,,,0.00,WUHU216DAVISVP2,2013-09-09 05:47:00,
2013-09-09 01:52:00,74.7,70.3,29.98,SSE,166,0.0,0.0,86,0.00,,,0.00,WUHU216DAVISVP2,2013-09-09 05:52:00,
2013-09-09 01:57:00,74.6,70.2,29.98,SSE,166,0.0,0.0,86,0.00,,,0.00,WUHU216DAVISVP2,2013-09-09 05:57:00,
2013-09-09 02:02:00,74.6,70.5,29.97,SSE,166,0.0,0.0,87,0.00,,,0.00,WUHU216DAVISVP2,2013-09-09 06:02:00,
2013-09-09 02:07:00,74.4,70.3,29.97,SSE,166,0.0,0.0,87,0.00,,,0.00,WUHU216DAVISVP2,2013-09-09 06:07:00,
2013-09-09 02:12:00,74.4,70.3,29.97,SSE,166,0.0,0.0,87,0.00,,,0.00,WUHU216DAVISVP2,2013-09-09 06:12:00,
2013-09-09 02:17:00,74.2,70.1,29.97,SSE,166,0.0,0.0,87,0.00,,,0.00,WUHU216DAVISVP2,2013-09-09 06:17:00,
2013-09-09 02:22:00,74.2,70.1,29.98,SSE,166,0.0,0.0,87,0.00,,,0.00,WUHU216DAVISVP2,2013-09-09 06:22:00,
2013-09-09 02:27:00,74.2,70.4,29.97,SSE,166,0.0,0.0,88,0.00,,,0.00,WUHU216DAVISVP2,2013-09-09 06:27:00,
2013-09-09 02:32:00,74.2,70.4,29.97,SSE,166,0.0,0.0,88,0.00,,,0.00,WUHU216DAVISVP2,2013-09-09 06:32:00,
2013-09-09 02:37:00,74.2,70.7,29.97,SSE,166,0.0,0.0,89,0.00,,,0.00,WUHU216DAVISVP2,2013-09-09 06:37:00,
2013-09-09 02:42:00,74.2,70.7,29.97,SSE,166,0.0,0.0,89,0.00,,,0.00,WUHU216DAVISVP2,2013-09-09 06:42:00,
2013-09-09 02:47:00,74.0,70.2,29.97,SSE,166,0.0,0.0,88,0.00,,,0.00,WUHU216DAVISVP2,2013-09-09 06:47:00,
2013-09-09 02:52:00,74.0,70.5,29.97,SSE,166,0.0,0.0,89,0.00,,,0.00,WUHU216DAVISVP2,2013-09-09 06:52:00,
2013-09-09 02:57:00,74.0,70.5,29.97,SSE,166,0.0,0.0,89,0.00,,,0.00,WUHU216DAVISVP2,2013-09-09 06:57:00,
2013-09-09 03:02:00,73.9,70.4,29.97,SSE,166,0.0,0.0,89,0.00,,,0.00,WUHU216DAVISVP2,2013-09-09 07:02:00,
2013-09-09 03:07:00,73.9,70.4,29.97,SSE,166,0.0,0.0,89,0.00,,,0.00,WUHU216DAVISVP2,2013-09-09 07:07:00,
2013-09-09 03:12:00,73.9,70.4,29.96,SSE,166,0.0,0.0,89,0.00,,,0.00,WUHU216DAVISVP2,2013-09-09 07:12:00,
2013-09-09 03:17:00,73.8,70.3,29.96,SSE,166,0.0,0.0,89,0.00,,,0.00,WUHU216DAVISVP2,2013-09-09 07:17:00,
2013-09-09 03:22:00,73.8,70.3,29.96,SSE,166,0.0,0.0,89,0.00,,,0.00,WUHU216DAVISVP2,2013-09-09 07:22:00,
2013-09-09 03:27:00,73.7,70.6,29.96,SSE,166,0.0,0.0,90,0.00,,,0.00,WUHU216DAVISVP2,2013-09-09 07:27:00,
2013-09-09 03:32:00,73.7,70.6,29.96,SSE,166,0.0,0.0,90,0.00,,,0.00,WUHU216DAVISVP2,2013-09-09 07:32:00,
2013-09-09 03:37:00,73.7,70.6,29.96,SSE,166,0.0,0.0,90,0.00,,,0.00,WUHU216DAVISVP2,2013-09-09 07:37:00,
2013-09-09 03:42:00,73.7,70.6,29.96,SSE,166,0.0,0.0,90,0.00,,,0.00,WUHU216DAVISVP2,2013-09-09 07:42:00,
2013-09-09 03:47:00,73.8,70.7,29.96,SSE,166,0.0,0.0,90,0.00,,,0.00,WUHU216DAVISVP2,2013-09-09 07:47:00,
2013-09-09 03:52:00,73.8,70.7,29.96,SSE,166,0.0,0.0,90,0.00,,,0.00,WUHU216DAVISVP2,2013-09-09 07:52:00,
2013-09-09 03:57:00,73.8,70.7,29.96,SSE,166,0.0,0.0,90,0.00,,,0.00,WUHU216DAVISVP2,2013-09-09 07:57:00,
2013-09-09 04:02:00,73.8,71.0,29.96,SSE,166,0.0,0.0,91,0.00,,,0.00,WUHU216DAVISVP2,2013-09-09 08:02:00,
2013-09-09 04:07:00,73.8,71.0,29.96,SSE,166,0.0,0.0,91,0.00,,,0.00,WUHU216DAVISVP2,2013-09-09 08:07:00,
2013-09-09 04:12:00,73.7,70.6,29.96,SSE,166,0.0,0.0,90,0.00,,,0.00,WUHU216DAVISVP2,2013-09-09 08:12:00,
2013-09-09 04:17:00,73.7,70.9,29.96,SSE,166,0.0,0.0,91,0.00,,,0.00,WUHU216DAVISVP2,2013-09-09 08:17:00,
2013-09-09 04:22:00,73.6,70.8,29.96,SSE,166,0.0,0.0,91,0.00,,,0.00,WUHU216DAVISVP2,2013-09-09 08:22:00,
2013-09-09 04:26:00,73.5,70.7,29.96,SSE,166,0.0,0.0,91,0.00,,,0.00,WUHU216DAVISVP2,2013-09-09 08:26:00,
2013-09-09 04:31:00,73.5,70.7,29.96,SSE,166,0.0,0.0,91,0.00,,,0.00,WUHU216DAVISVP2,2013-09-09 08:31:00,
2013-09-09 04:36:00,73.4,70.6,29.96,SSE,166,0.0,0.0,91,0.00,,,0.00,WUHU216DAVISVP2,2013-09-09 08:36:00,
2013-09-09 04:41:00,73.3,70.5,29.96,SSE,166,0.0,0.0,91,0.00,,,0.00,WUHU216DAVISVP2,2013-09-09 08:41:00,
2013-09-09 04:46:00,73.3,70.5,29.96,SSE,166,0.0,0.0,91,0.00,,,0.00,WUHU216DAVISVP2,2013-09-09 08:46:00,
2013-09-09 04:51:00,73.2,70.4,29.96,SSE,166,0.0,0.0,91,0.00,,,0.00,WUHU216DAVISVP2,2013-09-09 08:51:00,
2013-09-09 04:56:00,73.1,70.3,29.96,SSE,166,0.0,0.0,91,0.00,,,0.00,WUHU216DAVISVP2,2013-09-09 08:56:00,
2013-09-09 05:01:00,73.0,70.2,29.97,SSE,166,0.0,0.0,91,0.00,,,0.00,WUHU216DAVISVP2,2013-09-09 09:01:00,
2013-09-09 05:06:00,72.9,70.1,29.97,SSE,166,0.0,0.0,91,0.00,,,0.00,WUHU216DAVISVP2,2013-09-09 09:06:00,
2013-09-09 05:11:00,72.8,70.0,29.97,SSE,166,0.0,0.0,91,0.00,,,0.00,WUHU216DAVISVP2,2013-09-09 09:11:00,
2013-09-09 05:16:00,72.7,69.9,29.97,SSE,166,0.0,0.0,91,0.00,,,0.00,WUHU216DAVISVP2,2013-09-09 09:16:00,
2013-09-09 05:21:00,72.6,69.8,29.97,SSE,166,0.0,0.0,91,0.00,,,0.00,WUHU216DAVISVP2,2013-09-09 09:21:00,
2013-09-09 05:26:00,72.7,70.2,29.97,SSE,166,0.0,0.0,92,0.00,,,0.00,WUHU216DAVISVP2,2013-09-09 09:26:00,
2013-09-09 05:31:00,72.7,70.2,29.97,SSE,166,0.0,0.0,92,0.00,,,0.00,WUHU216DAVISVP2,2013-09-09 09:31:00,
2013-09-09 05:36:00,72.7,70.2,29.97,SSE,166,0.0,0.0,92,0.00,,,0.00,WUHU216DAVISVP2,2013-09-09 09:36:00,
2013-09-09 05:41:00,72.6,70.1,29.97,SSE,166,0.0,0.0,92,0.00,,,0.00,WUHU216DAVISVP2,2013-09-09 09:41:00,
2013-09-09 05:46:00,72.5,70.0,29.97,SSE,166,0.0,0.0,92,0.00,,,0.00,WUHU216DAVISVP2,2013-09-09 09:46:00,
2013-09-09 05:52:00,72.4,69.9,29.97,SSE,166,0.0,0.0,92,0.00,,,0.00,WUHU216DAVISVP2,2013-09-09 09:52:00,
2013-09-09 05:57:00,72.3,69.8,29.98,SSE,166,0.0,0.0,92,0.00,,,0.00,WUHU216DAVISVP2,2013-09-09 09:57:00,
2013-09-09 06:02:00,72.4,69.9,29.98,SSE,166,0.0,0.0,92,0.00,,,0.00,WUHU216DAVISVP2,2013-09-09 10:02:00,
2013-09-09 06:07:00,72.4,69.9,29.98,SSE,166,0.0,0.0,92,0.00,,,0.00,WUHU216DAVISVP2,2013-09-09 10:07:00,
2013-09-09 06:12:00,72.3,69.8,29.98,SSE,166,0.0,0.0,92,0.00,,,0.00,WUHU216DAVISVP2,2013-09-09 10:12:00,
2013-09-09 06:17:00,72.4,69.9,29.98,SSE,166,0.0,0.0,92,0.00,,,0.00,WUHU216DAVISVP2,2013-09-09 10:17:00,
2013-09-09 06:22:00,72.4,69.9,29.98,SSE,166,0.0,0.0,92,0.00,,,0.00,WUHU216DAVISVP2,2013-09-09 10:22:00,
2013-09-09 06:27:00,72.3,69.8,29.98,SSE,166,0.0,0.0,92,0.00,,,0.00,WUHU216DAVISVP2,2013-09-09 10:27:00,
2013-09-09 06:32:00,72.2,69.7,29.98,SSE,166,0.0,0.0,92,0.00,,,0.00,WUHU216DAVISVP2,2013-09-09 10:32:00,
2013-09-09 06:37:00,72.1,69.6,29.98,SSE,166,0.0,0.0,92,0.00,,,0.00,WUHU216DAVISVP2,2013-09-09 10:37:00,
2013-09-09 06:42:00,72.1,69.6,29.98,SSE,166,0.0,0.0,92,0.00,,,0.00,WUHU216DAVISVP2,2013-09-09 10:42:00,
2013-09-09 06:47:00,72.0,69.5,29.98,SSE,166,0.0,0.0,92,0.00,,,0.00,WUHU216DAVISVP2,2013-09-09 10:47:00,
2013-09-09 06:52:00,71.9,69.4,29.99,SSE,166,0.0,0.0,92,0.00,,,0.00,WUHU216DAVISVP2,2013-09-09 10:52:00,
2013-09-09 06:57:00,71.9,69.4,29.99,SSE,166,0.0,0.0,92,0.00,,,0.00,WUHU216DAVISVP2,2013-09-09 10:57:00,
2013-09-09 07:02:00,71.7,69.2,29.99,SSE,166,0.0,0.0,92,0.00,,,0.00,WUHU216DAVISVP2,2013-09-09 11:02:00,
2013-09-09 07:07:00,71.7,69.2,29.99,SSE,166,0.0,0.0,92,0.00,,,0.00,WUHU216DAVISVP2,2013-09-09 11:07:00,
2013-09-09 07:12:00,71.7,69.5,30.00,SSE,166,0.0,0.0,93,0.00,,,0.00,WUHU216DAVISVP2,2013-09-09 11:12:00,
2013-09-09 07:17:00,71.7,69.5,30.00,SSE,166,0.0,0.0,93,0.00,,,0.00,WUHU216DAVISVP2,2013-09-09 11:17:00,
2013-09-09 07:22:00,71.7,69.5,30.00,SSE,166,0.0,0.0,93,0.00,,,0.00,WUHU216DAVISVP2,2013-09-09 11:22:00,
2013-09-09 07:27:00,71.7,69.5,30.00,SSE,166,0.0,0.0,93,0.00,,,0.00,WUHU216DAVISVP2,2013-09-09 11:27:00,
2013-09-09 07:32:00,71.8,69.6,30.00,SSE,166,0.0,0.0,93,0.00,,,0.00,WUHU216DAVISVP2,2013-09-09 11:32:00,
2013-09-09 07:37:00,71.9,69.7,30.00,SSE,166,0.0,0.0,93,0.00,,,0.00,WUHU216DAVISVP2,2013-09-09 11:37:00,
2013-09-09 07:42:00,71.9,70.0,30.00,SSE,166,0.0,0.0,94,0.00,,,0.00,WUHU216DAVISVP2,2013-09-09 11:42:00,
2013-09-09 07:47:00,71.9,69.7,30.00,SSE,166,0.0,0.0,93,0.00,,,0.00,WUHU216DAVISVP2,2013-09-09 11:47:00,
2013-09-09 07:52:00,72.1,70.2,30.00,SSE,166,0.0,0.0,94,0.00,,,0.00,WUHU216DAVISVP2,2013-09-09 11:52:00,
2013-09-09 07:57:00,72.3,70.4,30.00,SSE,166,0.0,0.0,94,0.00,,,0.00,WUHU216DAVISVP2,2013-09-09 11:57:00,
2013-09-09 08:02:00,72.5,70.6,30.00,SSE,166,0.0,0.0,94,0.00,,,0.00,WUHU216DAVISVP2,2013-09-09 12:02:00,
2013-09-09 08:07:00,72.9,71.4,30.00,SSE,166,0.0,0.0,95,0.00,,,0.00,WUHU216DAVISVP2,2013-09-09 12:07:00,
2013-09-09 08:12:00,73.6,72.0,30.01,SSE,167,0.0,2.0,95,0.00,,,0.00,WUHU216DAVISVP2,2013-09-09 12:12:00,
2013-09-09 08:17:00,74.0,72.4,30.01,SSE,167,0.0,2.0,95,0.00,,,0.00,WUHU216DAVISVP2,2013-09-09 12:17:00,
2013-09-09 08:21:00,74.3,72.7,30.01,SSE,167,0.0,0.0,95,0.00,,,0.00,WUHU216DAVISVP2,2013-09-09 12:21:00,
2013-09-09 08:26:00,74.5,72.6,30.01,SSE,168,0.0,1.0,94,0.00,,,0.00,WUHU216DAVISVP2,2013-09-09 12:26:00,
2013-09-09 08:31:00,74.7,72.8,30.01,SSE,167,0.0,1.0,94,0.00,,,0.00,WUHU216DAVISVP2,2013-09-09 12:31:00,
2013-09-09 08:36:00,74.9,73.0,30.01,SSW,209,0.0,3.0,94,0.00,,,0.00,WUHU216DAVISVP2,2013-09-09 12:36:00,
2013-09-09 08:41:00,75.2,73.3,30.02,SSW,209,0.0,3.0,94,0.00,,,0.00,WUHU216DAVISVP2,2013-09-09 12:41:00,
2013-09-09 08:46:00,75.5,73.3,30.01,SSW,209,0.0,2.0,93,0.00,,,0.00,WUHU216DAVISVP2,2013-09-09 12:46:00,
2013-09-09 08:51:00,75.8,73.3,30.01,SSW,210,0.0,2.0,92,0.00,,,0.00,WUHU216DAVISVP2,2013-09-09 12:51:00,
2013-09-09 08:56:00,76.1,73.6,30.01,SSW,211,0.0,3.0,92,0.00,,,0.00,WUHU216DAVISVP2,2013-09-09 12:56:00,
2013-09-09 09:01:00,76.4,73.9,30.01,SSW,211,0.0,3.0,92,0.00,,,0.00,WUHU216DAVISVP2,2013-09-09 13:01:00,
2013-09-09 09:06:00,76.6,73.8,30.01,SSW,211,0.0,0.0,91,0.00,,,0.00,WUHU216DAVISVP2,2013-09-09 13:06:00,
2013-09-09 09:11:00,76.8,74.0,30.02,SSW,211,0.0,0.0,91,0.00,,,0.00,WUHU216DAVISVP2,2013-09-09 13:11:00,
2013-09-09 09:16:00,77.0,73.8,30.02,SSW,211,0.0,1.0,90,0.00,,,0.00,WUHU216DAVISVP2,2013-09-09 13:16:00,
2013-09-09 09:21:00,77.3,73.8,30.02,SW,215,0.0,3.0,89,0.00,,,0.00,WUHU216DAVISVP2,2013-09-09 13:21:00,
2013-09-09 09:26:00,77.6,73.8,30.02,WNW,282,0.0,3.0,88,0.00,,,0.00,WUHU216DAVISVP2,2013-09-09 13:26:00,
2013-09-09 09:31:00,78.0,73.8,30.02,WNW,282,0.0,1.0,87,0.00,,,0.00,WUHU216DAVISVP2,2013-09-09 13:31:00,
2013-09-09 09:36:00,78.4,74.2,30.03,ESE,121,0.0,1.0,87,0.00,,,0.00,WUHU216DAVISVP2,2013-09-09 13:36:00,
2013-09-09 09:41:00,78.8,74.0,30.03,ESE,121,0.0,1.0,85,0.00,,,0.00,WUHU216DAVISVP2,2013-09-09 13:41:00,
2013-09-09 09:46:00,79.1,73.9,30.03,ESE,121,0.0,0.0,84,0.00,,,0.00,WUHU216DAVISVP2,2013-09-09 13:46:00,
2013-09-09 09:51:00,79.5,74.0,30.03,ESE,121,0.0,0.0,83,0.00,,,0.00,WUHU216DAVISVP2,2013-09-09 13:51:00,
2013-09-09 09:56:00,79.8,73.9,30.03,NNW,333,0.0,3.0,82,0.00,,,0.00,WUHU216DAVISVP2,2013-09-09 13:56:00,
2013-09-09 10:01:00,80.1,74.5,30.03,NNW,333,0.0,3.0,83,0.00,,,0.00,WUHU216DAVISVP2,2013-09-09 14:01:00,
2013-09-09 10:06:00,80.5,74.2,30.03,NNW,347,0.0,2.0,81,0.00,,,0.00,WUHU216DAVISVP2,2013-09-09 14:06:00,
2013-09-09 10:11:00,80.8,73.8,30.03,NNW,334,0.0,2.0,79,0.00,,,0.00,WUHU216DAVISVP2,2013-09-09 14:11:00,
2013-09-09 10:16:00,81.0,73.6,30.03,NNW,333,0.0,2.0,78,0.00,,,0.00,WUHU216DAVISVP2,2013-09-09 14:16:00,
2013-09-09 10:21:00,81.2,73.1,30.03,NNW,331,0.0,2.0,76,0.00,,,0.00,WUHU216DAVISVP2,2013-09-09 14:21:00,
2013-09-09 10:26:00,81.5,73.4,30.03,NE,42,0.0,1.0,76,0.00,,,0.00,WUHU216DAVISVP2,2013-09-09 14:26:00,
2013-09-09 10:31:00,81.8,73.3,30.04,SE,131,0.0,1.0,75,0.00,,,0.00,WUHU216DAVISVP2,2013-09-09 14:31:00,
2013-09-09 10:36:00,82.0,73.1,30.04,SE,131,0.0,1.0,74,0.00,,,0.00,WUHU216DAVISVP2,2013-09-09 14:36:00,
2013-09-09 10:41:00,82.3,73.0,30.04,South,171,0.0,1.0,73,0.00,,,0.00,WUHU216DAVISVP2,2013-09-09 14:41:00,
2013-09-09 10:46:00,82.5,73.2,30.04,NNE,18,0.0,3.0,73,0.00,,,0.00,WUHU216DAVISVP2,2013-09-09 14:46:00,
2013-09-09 10:51:00,82.7,73.4,30.04,WNW,292,0.0,3.0,73,0.00,,,0.00,WUHU216DAVISVP2,2013-09-09 14:51:00,
2013-09-09 10:56:00,82.9,73.2,30.04,East,85,0.0,2.0,72,0.00,,,0.00,WUHU216DAVISVP2,2013-09-09 14:56:00,
2013-09-09 11:01:00,83.2,73.5,30.05,NNE,33,0.0,2.0,72,0.00,,,0.00,WUHU216DAVISVP2,2013-09-09 15:01:00,
2013-09-09 11:06:00,83.4,73.2,30.05,SW,219,0.0,1.0,71,0.00,,,0.00,WUHU216DAVISVP2,2013-09-09 15:06:00,
2013-09-09 11:11:00,83.7,73.5,30.05,SW,218,0.0,1.0,71,0.00,,,0.00,WUHU216DAVISVP2,2013-09-09 15:11:00,
2013-09-09 11:16:00,83.8,73.2,30.05,ESE,113,1.0,1.0,70,0.00,,,0.00,WUHU216DAVISVP2,2013-09-09 15:16:00,
2013-09-09 11:21:00,83.9,73.3,30.05,WNW,302,0.0,3.0,70,0.00,,,0.00,WUHU216DAVISVP2,2013-09-09 15:21:00,
2013-09-09 11:26:00,84.1,73.5,30.05,WSW,247,3.0,3.0,70,0.00,,,0.00,WUHU216DAVISVP2,2013-09-09 15:26:00,
2013-09-09 11:31:00,84.4,73.8,30.05,SE,133,0.0,3.0,70,0.00,,,0.00,WUHU216DAVISVP2,2013-09-09 15:31:00,
2013-09-09 11:36:00,84.8,74.2,30.05,SW,218,0.0,5.0,70,0.00,,,0.00,WUHU216DAVISVP2,2013-09-09 15:36:00,
2013-09-09 11:41:00,85.1,74.0,30.05,NNW,328,0.0,5.0,69,0.00,,,0.00,WUHU216DAVISVP2,2013-09-09 15:41:00,
2013-09-09 11:46:00,85.5,74.4,30.05,South,172,0.0,3.0,69,0.00,,,0.00,WUHU216DAVISVP2,2013-09-09 15:46:00,
2013-09-09 11:51:00,85.7,74.6,30.06,NNE,17,4.0,4.0,69,0.00,,,0.00,WUHU216DAVISVP2,2013-09-09 15:51:00,
2013-09-09 11:56:00,86.0,74.5,30.05,East,88,0.0,4.0,68,0.00,,,0.00,WUHU216DAVISVP2,2013-09-09 15:56:00,
2013-09-09 12:01:00,86.2,74.2,30.05,East,90,0.0,4.0,67,0.00,,,0.00,WUHU216DAVISVP2,2013-09-09 16:01:00,
2013-09-09 12:06:00,86.4,74.4,30.05,NW,324,0.0,2.0,67,0.00,,,0.00,WUHU216DAVISVP2,2013-09-09 16:06:00,
2013-09-09 12:11:00,86.5,75.0,30.05,SW,231,2.0,2.0,68,0.00,,,0.00,WUHU216DAVISVP2,2013-09-09 16:11:00,
2013-09-09 12:16:00,86.6,74.2,30.05,ESE,116,1.0,2.0,66,0.00,,,0.00,WUHU216DAVISVP2,2013-09-09 16:16:00,
2013-09-09 12:21:00,86.6,74.6,30.05,SSE,154,0.0,2.0,67,0.00,,,0.00,WUHU216DAVISVP2,2013-09-09 16:21:00,
2013-09-09 12:26:00,86.7,73.8,30.05,NW,323,0.0,4.0,65,0.00,,,0.00,WUHU216DAVISVP2,2013-09-09 16:26:00,
2013-09-09 12:31:00,86.6,74.2,30.05,West,273,0.0,4.0,66,0.00,,,0.00,WUHU216DAVISVP2,2013-09-09 16:31:00,
2013-09-09 12:36:00,86.9,74.5,30.05,WSW,255,0.0,3.0,66,0.00,,,0.00,WUHU216DAVISVP2,2013-09-09 16:36:00,
2013-09-09 12:41:00,86.9,74.5,30.05,East,99,0.0,5.0,66,0.00,,,0.00,WUHU216DAVISVP2,2013-09-09 16:41:00,
2013-09-09 12:46:00,86.9,74.5,30.05,ENE,61,0.0,5.0,66,0.00,,,0.00,WUHU216DAVISVP2,2013-09-09 16:46:00,
2013-09-09 12:51:00,87.0,74.1,30.05,North,9,0.0,5.0,65,0.00,,,0.00,WUHU216DAVISVP2,2013-09-09 16:51:00,
2013-09-09 12:56:00,87.0,74.5,30.05,East,96,0.0,1.0,66,0.00,,,0.00,WUHU216DAVISVP2,2013-09-09 16:56:00,
2013-09-09 13:01:00,87.3,74.4,30.05,SW,219,0.0,2.0,65,0.00,,,0.00,WUHU216DAVISVP2,2013-09-09 17:01:00,
2013-09-09 13:06:00,87.5,74.6,30.05,NNE,30,0.0,2.0,65,0.00,,,0.00,WUHU216DAVISVP2,2013-09-09 17:06:00,
2013-09-09 13:11:00,87.6,74.7,30.05,SW,229,0.0,1.0,65,0.00,,,0.00,WUHU216DAVISVP2,2013-09-09 17:11:00,
2013-09-09 13:16:00,87.7,74.3,30.05,SW,227,0.0,1.0,64,0.00,,,0.00,WUHU216DAVISVP2,2013-09-09 17:16:00,
2013-09-09 13:21:00,87.5,74.6,30.05,NNE,28,1.0,3.0,65,0.00,,,0.00,WUHU216DAVISVP2,2013-09-09 17:21:00,
2013-09-09 13:26:00,87.6,75.1,30.05,WSW,246,0.0,3.0,66,0.00,,,0.00,WUHU216DAVISVP2,2013-09-09 17:26:00,
2013-09-09 13:31:00,87.9,75.0,30.05,SSE,151,0.0,2.0,65,0.00,,,0.00,WUHU216DAVISVP2,2013-09-09 17:31:00,
2013-09-09 13:36:00,87.8,74.9,30.05,SSW,192,0.0,2.0,65,0.00,,,0.00,WUHU216DAVISVP2,2013-09-09 17:36:00,
2013-09-09 13:41:00,88.0,75.5,30.05,West,273,0.0,3.0,66,0.00,,,0.00,WUHU216DAVISVP2,2013-09-09 17:41:00,
2013-09-09 13:46:00,88.1,74.2,30.05,West,266,0.0,5.0,63,0.00,,,0.00,WUHU216DAVISVP2,2013-09-09 17:46:00,
2013-09-09 13:51:00,87.8,74.9,30.05,South,191,0.0,5.0,65,0.00,,,0.00,WUHU216DAVISVP2,2013-09-09 17:51:00,
2013-09-09 13:56:00,87.9,74.5,30.05,SSW,206,0.0,4.0,64,0.00,,,0.00,WUHU216DAVISVP2,2013-09-09 17:56:00,
2013-09-09 14:01:00,88.0,74.6,30.05,SSW,205,0.0,4.0,64,0.00,,,0.00,WUHU216DAVISVP2,2013-09-09 18:01:00,
2013-09-09 14:06:00,87.9,74.0,30.05,SW,224,0.0,2.0,63,0.00,,,0.00,WUHU216DAVISVP2,2013-09-09 18:06:00,
2013-09-09 14:11:00,88.1,74.7,30.05,West,267,0.0,3.0,64,0.00,,,0.00,WUHU216DAVISVP2,2013-09-09 18:11:00,
2013-09-09 14:16:00,88.5,75.1,30.05,WNW,286,1.0,3.0,64,0.00,,,0.00,WUHU216DAVISVP2,2013-09-09 18:16:00,
2013-09-09 14:21:00,88.5,74.6,30.05,SSW,213,6.0,6.0,63,0.00,,,0.00,WUHU216DAVISVP2,2013-09-09 18:21:00,
2013-09-09 14:26:00,88.3,74.4,30.05,WNW,289,0.0,6.0,63,0.00,,,0.00,WUHU216DAVISVP2,2013-09-09 18:26:00,
2013-09-09 14:31:00,88.1,74.7,30.05,NNW,329,2.0,5.0,64,0.00,,,0.00,WUHU216DAVISVP2,2013-09-09 18:31:00,
2013-09-09 14:36:00,88.0,74.6,30.05,WSW,254,0.0,4.0,64,0.00,,,0.00,WUHU216DAVISVP2,2013-09-09 18:36:00,
2013-09-09 14:41:00,88.0,75.0,30.05,NNW,340,0.0,4.0,65,0.00,,,0.00,WUHU216DAVISVP2,2013-09-09 18:41:00,
2013-09-09 14:46:00,88.3,74.9,30.05,NE,40,0.0,1.0,64,0.00,,,0.00,WUHU216DAVISVP2,2013-09-09 18:46:00,
2013-09-09 14:51:00,88.1,74.7,30.05,NNW,328,0.0,2.0,64,0.00,,,0.00,WUHU216DAVISVP2,2013-09-09 18:51:00,
2013-09-09 14:56:00,87.8,74.9,30.04,East,82,0.0,3.0,65,0.00,,,0.00,WUHU216DAVISVP2,2013-09-09 18:56:00,
2013-09-09 15:01:00,87.9,75.0,30.04,West,260,0.0,3.0,65,0.00,,,0.00,WUHU216DAVISVP2,2013-09-09 19:01:00,
2013-09-09 15:06:00,88.2,74.8,30.04,NNW,329,0.0,3.0,64,0.00,,,0.00,WUHU216DAVISVP2,2013-09-09 19:06:00,
2013-09-09 15:11:00,88.2,74.8,30.04,NE,50,0.0,3.0,64,0.00,,,0.00,WUHU216DAVISVP2,2013-09-09 19:11:00,
2013-09-09 15:16:00,87.8,74.9,30.04,WNW,302,0.0,3.0,65,0.00,,,0.00,WUHU216DAVISVP2,2013-09-09 19:16:00,
2013-09-09 15:21:00,87.7,74.3,30.04,NNW,342,0.0,3.0,64,0.00,,,0.00,WUHU216DAVISVP2,2013-09-09 19:21:00,
2013-09-09 15:26:00,87.6,75.1,30.03,NNW,331,0.0,3.0,66,0.00,,,0.00,WUHU216DAVISVP2,2013-09-09 19:26:00,
2013-09-09 15:31:00,87.5,75.0,30.04,SSW,194,0.0,3.0,66,0.00,,,0.00,WUHU216DAVISVP2,2013-09-09 19:31:00,
2013-09-09 15:36:00,87.7,74.8,30.04,WNW,296,0.0,3.0,65,0.00,,,0.00,WUHU216DAVISVP2,2013-09-09 19:36:00,
2013-09-09 15:41:00,87.9,75.4,30.04,ESE,103,0.0,3.0,66,0.00,,,0.00,WUHU216DAVISVP2,2013-09-09 19:41:00,
2013-09-09 15:46:00,88.0,75.5,30.04,WNW,286,1.0,4.0,66,0.00,,,0.00,WUHU216DAVISVP2,2013-09-09 19:46:00,
2013-09-09 15:51:00,87.8,75.3,30.04,WNW,290,0.0,4.0,66,0.00,,,0.00,WUHU216DAVISVP2,2013-09-09 19:51:00,
2013-09-09 15:56:00,87.8,75.3,30.03,SSE,161,0.0,4.0,66,0.00,,,0.00,WUHU216DAVISVP2,2013-09-09 19:56:00,
2013-09-09 16:01:00,87.8,74.9,30.03,North,351,1.0,4.0,65,0.00,,,0.00,WUHU216DAVISVP2,2013-09-09 20:01:00,
2013-09-09 16:06:00,87.7,74.8,30.03,NNE,28,0.0,4.0,65,0.00,,,0.00,WUHU216DAVISVP2,2013-09-09 20:06:00,
2013-09-09 16:11:00,87.3,73.9,30.03,East,98,2.0,5.0,64,0.00,,,0.00,WUHU216DAVISVP2,2013-09-09 20:11:00,
2013-09-09 16:16:00,87.1,73.3,30.03,NW,311,0.0,5.0,63,0.00,,,0.00,WUHU216DAVISVP2,2013-09-09 20:16:00,
2013-09-09 16:21:00,87.3,73.5,30.03,NNW,344,0.0,3.0,63,0.00,,,0.00,WUHU216DAVISVP2,2013-09-09 20:21:00,
2013-09-09 16:26:00,87.5,74.1,30.03,SSE,155,0.0,3.0,64,0.00,,,0.00,WUHU216DAVISVP2,2013-09-09 20:26:00,
2013-09-09 16:31:00,87.7,73.4,30.03,South,186,0.0,4.0,62,0.00,,,0.00,WUHU216DAVISVP2,2013-09-09 20:31:00,
2013-09-09 16:36:00,87.5,73.2,30.03,NW,304,0.0,4.0,62,0.00,,,0.00,WUHU216DAVISVP2,2013-09-09 20:36:00,
2013-09-09 16:41:00,87.6,73.3,30.03,SE,145,0.0,4.0,62,0.00,,,0.00,WUHU216DAVISVP2,2013-09-09 20:41:00,
2013-09-09 16:46:00,87.5,73.6,30.03,WSW,244,0.0,4.0,63,0.00,,,0.00,WUHU216DAVISVP2,2013-09-09 20:46:00,
2013-09-09 16:51:00,87.4,73.5,30.03,SSW,204,0.0,4.0,63,0.00,,,0.00,WUHU216DAVISVP2,2013-09-09 20:51:00,
2013-09-09 16:56:00,87.4,73.5,30.03,SSE,152,1.0,4.0,63,0.00,,,0.00,WUHU216DAVISVP2,2013-09-09 20:56:00,
2013-09-09 17:01:00,87.1,73.7,30.03,SSE,165,0.0,4.0,64,0.00,,,0.00,WUHU216DAVISVP2,2013-09-09 21:01:00,
2013-09-09 17:06:00,86.8,73.9,30.03,NE,49,1.0,3.0,65,0.00,,,0.00,WUHU216DAVISVP2,2013-09-09 21:06:00,
2013-09-09 17:11:00,86.4,73.5,30.03,NE,42,0.0,3.0,65,0.00,,,0.00,WUHU216DAVISVP2,2013-09-09 21:11:00,
2013-09-09 17:16:00,86.2,73.8,30.03,South,184,0.0,3.0,66,0.00,,,0.00,WUHU216DAVISVP2,2013-09-09 21:16:00,
2013-09-09 17:21:00,86.1,73.2,30.03,SW,227,0.0,3.0,65,0.00,,,0.00,WUHU216DAVISVP2,2013-09-09 21:21:00,
2013-09-09 17:26:00,86.1,73.2,30.03,SW,226,0.0,1.0,65,0.00,,,0.00,WUHU216DAVISVP2,2013-09-09 21:26:00,
2013-09-09 17:31:00,86.2,73.8,30.03,SSW,213,0.0,2.0,66,0.00,,,0.00,WUHU216DAVISVP2,2013-09-09 21:31:00,
2013-09-09 17:36:00,86.1,73.2,30.03,ESE,107,0.0,3.0,65,0.00,,,0.00,WUHU216DAVISVP2,2013-09-09 21:36:00,
2013-09-09 17:41:00,85.8,73.0,30.03,SSW,201,0.0,5.0,65,0.00,,,0.00,WUHU216DAVISVP2,2013-09-09 21:41:00,
2013-09-09 17:46:00,85.7,73.3,30.03,South,188,0.0,5.0,66,0.00,,,0.00,WUHU216DAVISVP2,2013-09-09 21:46:00,
2013-09-09 17:51:00,85.5,73.6,30.03,South,182,0.0,4.0,67,0.00,,,0.00,WUHU216DAVISVP2,2013-09-09 21:51:00,
2013-09-09 17:56:00,85.5,73.6,30.03,SE,145,1.0,1.0,67,0.00,,,0.00,WUHU216DAVISVP2,2013-09-09 21:56:00,
2013-09-09 18:01:00,85.2,73.3,30.03,WSW,257,0.0,2.0,67,0.00,,,0.00,WUHU216DAVISVP2,2013-09-09 22:01:00,
2013-09-09 18:06:00,85.0,73.5,30.03,West,259,0.0,2.0,68,0.00,,,0.00,WUHU216DAVISVP2,2013-09-09 22:06:00,
2013-09-09 18:11:00,84.9,73.0,30.03,WNW,297,0.0,1.0,67,0.00,,,0.00,WUHU216DAVISVP2,2013-09-09 22:11:00,
2013-09-09 18:16:00,84.8,73.3,30.03,West,279,0.0,1.0,68,0.00,,,0.00,WUHU216DAVISVP2,2013-09-09 22:16:00,
2013-09-09 18:21:00,84.6,73.6,30.02,SSW,209,0.0,1.0,69,0.00,,,0.00,WUHU216DAVISVP2,2013-09-09 22:21:00,
2013-09-09 18:26:00,84.4,73.4,30.02,SSE,168,0.0,1.0,69,0.00,,,0.00,WUHU216DAVISVP2,2013-09-09 22:26:00,
2013-09-09 18:31:00,84.1,73.1,30.03,South,171,0.0,1.0,69,0.00,,,0.00,WUHU216DAVISVP2,2013-09-09 22:31:00,
2013-09-09 18:36:00,83.8,72.8,30.03,SSW,209,0.0,2.0,69,0.00,,,0.00,WUHU216DAVISVP2,2013-09-09 22:36:00,
2013-09-09 18:41:00,83.6,72.6,30.02,SSW,207,0.0,3.0,69,0.00,,,0.00,WUHU216DAVISVP2,2013-09-09 22:41:00,
2013-09-09 18:46:00,83.4,72.8,30.02,SSW,208,0.0,3.0,70,0.00,,,0.00,WUHU216DAVISVP2,2013-09-09 22:46:00,
2013-09-09 18:51:00,83.3,72.7,30.03,SSW,207,0.0,2.0,70,0.00,,,0.00,WUHU216DAVISVP2,2013-09-09 22:51:00,
2013-09-09 18:56:00,83.2,72.6,30.03,SSW,207,0.0,2.0,70,0.00,,,0.00,WUHU216DAVISVP2,2013-09-09 22:56:00,
2013-09-09 19:01:00,82.9,72.3,30.03,SSW,202,0.0,1.0,70,0.00,,,0.00,WUHU216DAVISVP2,2013-09-09 23:01:00,
2013-09-09 19:06:00,82.8,72.3,30.03,SSW,202,0.0,1.0,70,0.00,,,0.00,WUHU216DAVISVP2,2013-09-09 23:06:00,
2013-09-09 19:11:00,82.7,72.6,30.03,SSW,203,0.0,1.0,71,0.00,,,0.00,WUHU216DAVISVP2,2013-09-09 23:11:00,
2013-09-09 19:16:00,82.6,72.5,30.03,SW,224,0.0,1.0,71,0.00,,,0.00,WUHU216DAVISVP2,2013-09-09 23:16:00,
2013-09-09 19:21:00,82.4,72.3,30.03,SW,224,0.0,1.0,71,0.00,,,0.00,WUHU216DAVISVP2,2013-09-09 23:21:00,
2013-09-09 19:26:00,82.3,72.2,30.02,SW,224,0.0,0.0,71,0.00,,,0.00,WUHU216DAVISVP2,2013-09-09 23:26:00,
2013-09-09 19:31:00,82.1,72.4,30.02,SW,224,0.0,1.0,72,0.00,,,0.00,WUHU216DAVISVP2,2013-09-09 23:31:00,
2013-09-09 19:36:00,82.0,72.3,30.02,SW,224,0.0,1.0,72,0.00,,,0.00,WUHU216DAVISVP2,2013-09-09 23:36:00,
2013-09-09 19:41:00,81.9,72.2,30.03,SW,224,0.0,1.0,72,0.00,,,0.00,WUHU216DAVISVP2,2013-09-09 23:41:00,
2013-09-09 19:46:00,81.8,72.1,30.03,SW,224,0.0,1.0,72,0.00,,,0.00,WUHU216DAVISVP2,2013-09-09 23:46:00,
2013-09-09 19:51:00,81.7,72.0,30.03,SW,224,0.0,1.0,72,0.00,,,0.00,WUHU216DAVISVP2,2013-09-09 23:51:00,
2013-09-09 19:56:00,81.6,71.9,30.03,SW,224,0.0,1.0,72,0.00,,,0.00,WUHU216DAVISVP2,2013-09-09 23:56:00,
2013-09-09 20:01:00,81.5,71.4,30.03,South,179,0.0,2.0,71,0.00,,,0.00,WUHU216DAVISVP2,2013-09-10 00:01:00,
2013-09-09 20:06:00,81.5,71.4,30.03,SW,230,0.0,2.0,71,0.00,,,0.00,WUHU216DAVISVP2,2013-09-10 00:06:00,
2013-09-09 20:11:00,81.4,71.3,30.03,SSW,201,0.0,2.0,71,0.00,,,0.00,WUHU216DAVISVP2,2013-09-10 00:11:00,
2013-09-09 20:16:00,81.4,71.3,30.03,SSW,201,0.0,1.0,71,0.00,,,0.00,WUHU216DAVISVP2,2013-09-10 00:16:00,
2013-09-09 20:21:00,81.3,71.6,30.03,SSW,201,0.0,1.0,72,0.00,,,0.00,WUHU216DAVISVP2,2013-09-10 00:21:00,
2013-09-09 20:26:00,81.2,71.5,30.03,East,84,0.0,1.0,72,0.00,,,0.00,WUHU216DAVISVP2,2013-09-10 00:26:00,
2013-09-09 20:31:00,81.2,71.5,30.03,SE,146,0.0,3.0,72,0.00,,,0.00,WUHU216DAVISVP2,2013-09-10 00:31:00,
2013-09-09 20:36:00,81.2,71.5,30.03,SE,146,0.0,3.0,72,0.00,,,0.00,WUHU216DAVISVP2,2013-09-10 00:36:00,
2013-09-09 20:41:00,81.1,71.4,30.03,SE,146,0.0,0.0,72,0.00,,,0.00,WUHU216DAVISVP2,2013-09-10 00:41:00,
2013-09-09 20:46:00,81.0,71.3,30.03,SE,146,0.0,0.0,72,0.00,,,0.00,WUHU216DAVISVP2,2013-09-10 00:46:00,
2013-09-09 20:51:00,81.0,71.3,30.03,SE,146,0.0,0.0,72,0.00,,,0.00,WUHU216DAVISVP2,2013-09-10 00:51:00,
2013-09-09 20:56:00,80.9,71.6,30.03,SE,146,0.0,0.0,73,0.00,,,0.00,WUHU216DAVISVP2,2013-09-10 00:56:00,
2013-09-09 21:01:00,80.9,71.6,30.04,SE,146,0.0,0.0,73,0.00,,,0.00,WUHU216DAVISVP2,2013-09-10 01:01:00,
2013-09-09 21:06:00,80.9,71.6,30.04,SE,146,0.0,0.0,73,0.00,,,0.00,WUHU216DAVISVP2,2013-09-10 01:06:00,
2013-09-09 21:11:00,80.9,71.6,30.04,SE,146,0.0,1.0,73,0.00,,,0.00,WUHU216DAVISVP2,2013-09-10 01:11:00,
2013-09-09 21:16:00,80.9,71.6,30.04,SE,146,0.0,1.0,73,0.00,,,0.00,WUHU216DAVISVP2,2013-09-10 01:16:00,
2013-09-09 21:21:00,80.9,71.6,30.05,SE,146,0.0,1.0,73,0.00,,,0.00,WUHU216DAVISVP2,2013-09-10 01:21:00,
2013-09-09 21:26:00,80.9,71.6,30.05,SSE,155,0.0,1.0,73,0.00,,,0.00,WUHU216DAVISVP2,2013-09-10 01:26:00,
2013-09-09 21:31:00,80.9,71.6,30.05,SSE,155,0.0,1.0,73,0.00,,,0.00,WUHU216DAVISVP2,2013-09-10 01:31:00,
2013-09-09 21:36:00,80.9,71.2,30.05,SSE,155,0.0,1.0,72,0.00,,,0.00,WUHU216DAVISVP2,2013-09-10 01:36:00,
2013-09-09 21:41:00,80.8,71.1,30.05,SSE,155,0.0,1.0,72,0.00,,,0.00,WUHU216DAVISVP2,2013-09-10 01:41:00,
2013-09-09 21:46:00,80.8,71.5,30.05,SSE,161,0.0,1.0,73,0.00,,,0.00,WUHU216DAVISVP2,2013-09-10 01:46:00,
2013-09-09 21:51:00,80.8,71.5,30.05,SSE,161,0.0,1.0,73,0.00,,,0.00,WUHU216DAVISVP2,2013-09-10 01:51:00,
2013-09-09 21:56:00,80.8,71.9,30.05,SSE,161,0.0,1.0,74,0.00,,,0.00,WUHU216DAVISVP2,2013-09-10 01:56:00,
2013-09-09 22:01:00,80.8,72.3,30.06,SSE,162,0.0,0.0,75,0.00,,,0.00,WUHU216DAVISVP2,2013-09-10 02:01:00,
2013-09-09 22:06:00,80.8,72.3,30.05,SSE,162,0.0,1.0,75,0.00,,,0.00,WUHU216DAVISVP2,2013-09-10 02:06:00,
2013-09-09 22:11:00,80.8,72.3,30.05,SSE,162,0.0,1.0,75,0.00,,,0.00,WUHU216DAVISVP2,2013-09-10 02:11:00,
2013-09-09 22:16:00,80.8,72.3,30.06,SSE,162,0.0,0.0,75,0.00,,,0.00,WUHU216DAVISVP2,2013-09-10 02:16:00,
2013-09-09 22:21:00,80.7,72.2,30.06,SSE,162,0.0,2.0,75,0.00,,,0.00,WUHU216DAVISVP2,2013-09-10 02:21:00,
2013-09-09 22:26:00,80.6,72.1,30.06,SSE,162,0.0,2.0,75,0.00,,,0.00,WUHU216DAVISVP2,2013-09-10 02:26:00,
2013-09-09 22:31:00,80.5,72.0,30.06,SSW,197,0.0,2.0,75,0.00,,,0.00,WUHU216DAVISVP2,2013-09-10 02:31:00,
2013-09-09 22:36:00,80.5,71.6,30.06,SSW,197,0.0,2.0,74,0.00,,,0.00,WUHU216DAVISVP2,2013-09-10 02:36:00,
2013-09-09 22:41:00,80.5,71.6,30.06,SSW,197,0.0,1.0,74,0.00,,,0.00,WUHU216DAVISVP2,2013-09-10 02:41:00,
2013-09-09 22:46:00,80.5,71.2,30.06,West,259,0.0,1.0,73,0.00,,,0.00,WUHU216DAVISVP2,2013-09-10 02:46:00,
2013-09-09 22:51:00,80.6,71.7,30.06,SSW,196,0.0,3.0,74,0.00,,,0.00,WUHU216DAVISVP2,2013-09-10 02:51:00,
2013-09-09 22:56:00,80.7,72.2,30.06,WSW,240,0.0,3.0,75,0.00,,,0.00,WUHU216DAVISVP2,2013-09-10 02:56:00,
2013-09-09 23:01:00,80.7,71.8,30.07,SE,127,0.0,3.0,74,0.00,,,0.00,WUHU216DAVISVP2,2013-09-10 03:01:00,
2013-09-09 23:06:00,80.7,71.4,30.07,ESE,117,0.0,3.0,73,0.00,,,0.00,WUHU216DAVISVP2,2013-09-10 03:06:00,
2013-09-09 23:11:00,80.7,71.4,30.07,ESE,122,0.0,1.0,73,0.00,,,0.00,WUHU216DAVISVP2,2013-09-10 03:11:00,
2013-09-09 23:16:00,80.6,70.5,30.07,ESE,122,0.0,0.0,71,0.00,,,0.00,WUHU216DAVISVP2,2013-09-10 03:16:00,
2013-09-09 23:21:00,80.4,69.9,30.07,ESE,123,0.0,1.0,70,0.00,,,0.00,WUHU216DAVISVP2,2013-09-10 03:21:00,
2013-09-09 23:26:00,80.4,69.5,30.07,South,190,3.0,3.0,69,0.00,,,0.00,WUHU216DAVISVP2,2013-09-10 03:26:00,
2013-09-09 23:31:00,80.4,69.9,30.07,South,188,0.0,3.0,70,0.00,,,0.00,WUHU216DAVISVP2,2013-09-10 03:31:00,
2013-09-09 23:36:00,80.4,70.4,30.07,South,188,0.0,2.0,71,0.00,,,0.00,WUHU216DAVISVP2,2013-09-10 03:36:00,
2013-09-09 23:41:00,80.5,70.9,30.07,South,188,0.0,1.0,72,0.00,,,0.00,WUHU216DAVISVP2,2013-09-10 03:41:00,
2013-09-09 23:46:00,80.5,70.9,30.07,South,188,0.0,1.0,72,0.00,,,0.00,WUHU216DAVISVP2,2013-09-10 03:46:00,
2013-09-09 23:51:00,80.4,71.2,30.07,South,188,0.0,0.0,73,0.00,,,0.00,WUHU216DAVISVP2,2013-09-10 03:51:00,
2013-09-09 23:56:00,80.4,71.2,30.07,South,188,0.0,1.0,73,0.00,,,0.00,WUHU216DAVISVP2,2013-09-10 03:56:00,